createdAt,value
2018-08-04T00:01:42.964Z,9.20
2018-08-04T00:04:10.767Z,8.80
2018-08-04T00:06:38.544Z,8.83
2018-08-04T00:09:09.138Z,8.27
2018-08-04T00:11:36.993Z,9.50
2018-08-04T00:14:04.879Z,8.47
2018-08-04T00:16:32.886Z,8.60
2018-08-04T00:19:00.698Z,8.53
2018-08-04T00:21:28.486Z,9.07
2018-08-04T00:23:56.514Z,7.53
2018-08-04T00:26:28.823Z,8.03
2018-08-04T00:28:57.327Z,7.27
2018-08-04T00:31:25.183Z,8.17
2018-08-04T00:33:53.041Z,8.30
2018-08-04T00:36:20.880Z,8.07
2018-08-04T00:38:48.687Z,7.77
2018-08-04T00:41:16.599Z,7.70
2018-08-04T00:43:44.402Z,8.00
2018-08-04T00:46:12.296Z,8.20
2018-08-04T00:48:40.100Z,7.30
2018-08-04T00:51:08.005Z,7.30
2018-08-04T00:53:35.827Z,9.47
2018-08-04T00:56:03.706Z,7.90
2018-08-04T00:58:31.500Z,10.50
2018-08-04T01:00:59.394Z,7.40
2018-08-04T01:03:27.242Z,7.23
2018-08-04T01:05:55.256Z,11.70
2018-08-04T01:08:23.147Z,7.40
2018-08-04T01:10:50.966Z,10.43
2018-08-04T01:13:18.834Z,8.70
2018-08-04T01:15:46.666Z,8.07
2018-08-04T01:18:14.490Z,7.47
2018-08-04T01:20:42.358Z,8.53
2018-08-04T01:23:10.194Z,9.07
2018-08-04T01:25:38.006Z,9.00
2018-08-04T01:28:05.936Z,9.10
2018-08-04T01:30:33.874Z,8.43
2018-08-04T01:33:01.717Z,8.70
2018-08-04T01:35:29.622Z,8.13
2018-08-04T01:37:57.532Z,8.60
2018-08-04T01:40:25.374Z,8.97
2018-08-04T01:42:53.236Z,8.40
2018-08-04T01:45:21.075Z,8.17
2018-08-04T01:47:48.939Z,8.03
2018-08-04T01:50:16.729Z,8.97
2018-08-04T01:52:44.547Z,9.73
2018-08-04T01:55:12.379Z,9.40
2018-08-04T01:57:40.156Z,8.43
2018-08-04T02:00:08.283Z,9.67
2018-08-04T02:02:36.279Z,9.43
2018-08-04T02:05:04.235Z,8.77
2018-08-04T02:07:32.087Z,9.30
2018-08-04T02:09:59.878Z,10.17
2018-08-04T02:12:27.774Z,9.43
2018-08-04T02:14:55.568Z,8.80
2018-08-04T02:17:23.352Z,9.07
2018-08-04T02:19:51.210Z,7.90
2018-08-04T02:22:19.098Z,12.20
2018-08-04T02:24:46.963Z,8.50
2018-08-04T02:27:14.783Z,8.13
2018-08-04T02:29:42.593Z,8.67
2018-08-04T02:32:10.355Z,8.57
2018-08-04T02:34:38.159Z,9.63
2018-08-04T02:37:05.987Z,9.53
2018-08-04T02:39:33.863Z,9.10
2018-08-04T02:42:01.633Z,9.70
2018-08-04T02:44:30.091Z,9.40
2018-08-04T02:46:57.900Z,10.23
2018-08-04T02:49:25.694Z,10.17
2018-08-04T02:51:53.536Z,9.87
2018-08-04T02:54:21.347Z,8.43
2018-08-04T02:56:49.227Z,8.90
2018-08-04T02:59:16.975Z,9.50
2018-08-04T03:01:44.827Z,9.40
2018-08-04T03:04:12.674Z,9.40
2018-08-04T03:06:40.441Z,10.10
2018-08-04T03:09:09.902Z,10.93
2018-08-04T03:11:37.698Z,10.50
2018-08-04T03:14:05.607Z,11.20
2018-08-04T03:16:33.428Z,10.50
2018-08-04T03:19:01.498Z,9.40
2018-08-04T03:21:30.125Z,14.00
2018-08-04T03:23:57.995Z,9.13
2018-08-04T03:26:25.912Z,10.60
2018-08-04T03:28:53.685Z,9.90
2018-08-04T03:31:21.472Z,10.43
2018-08-04T03:33:49.349Z,11.40
2018-08-04T03:36:17.220Z,10.03
2018-08-04T03:38:45.092Z,10.63
2018-08-04T03:41:12.880Z,12.20
2018-08-04T03:43:40.728Z,9.50
2018-08-04T03:46:08.644Z,10.47
2018-08-04T03:48:36.394Z,10.37
2018-08-04T03:51:04.446Z,10.47
2018-08-04T03:53:32.619Z,10.63
2018-08-04T03:56:00.357Z,10.20
2018-08-04T03:58:28.119Z,9.97
2018-08-04T04:00:55.982Z,11.40
2018-08-04T04:03:23.943Z,9.60
2018-08-04T04:05:52.315Z,10.97
2018-08-04T04:08:20.176Z,11.03
2018-08-04T04:10:48.019Z,11.83
2018-08-04T04:13:15.859Z,9.73
2018-08-04T04:15:43.687Z,9.63
2018-08-04T04:18:11.540Z,10.63
2018-08-04T04:20:39.370Z,10.23
2018-08-04T04:23:07.190Z,9.60
2018-08-04T04:25:35.079Z,9.50
2018-08-04T04:28:02.856Z,9.73
2018-08-04T04:30:30.587Z,11.27
2018-08-04T04:32:58.448Z,9.60
2018-08-04T04:35:26.262Z,9.27
2018-08-04T04:37:54.122Z,10.47
2018-08-04T04:40:21.913Z,10.10
2018-08-04T04:42:49.759Z,9.27
2018-08-04T04:45:17.546Z,9.40
2018-08-04T04:47:45.303Z,9.97
2018-08-04T04:50:13.090Z,9.87
2018-08-04T04:52:40.914Z,9.17
2018-08-04T04:55:08.794Z,9.63
2018-08-04T04:57:36.563Z,10.47
2018-08-04T05:00:04.635Z,11.97
2018-08-04T05:02:32.515Z,10.43
2018-08-04T05:05:00.370Z,12.17
2018-08-04T05:07:28.543Z,10.73
2018-08-04T05:09:56.397Z,9.53
2018-08-04T05:12:24.274Z,8.90
2018-08-04T05:14:52.099Z,10.20
2018-08-04T05:17:19.853Z,8.83
2018-08-04T05:19:47.678Z,9.40
2018-08-04T05:22:15.398Z,10.03
2018-08-04T05:24:43.183Z,10.93
2018-08-04T05:27:11.024Z,10.20
2018-08-04T05:29:38.863Z,10.53
2018-08-04T05:32:06.730Z,10.40
2018-08-04T05:34:34.467Z,10.30
2018-08-04T05:37:02.239Z,10.97
2018-08-04T05:39:30.115Z,11.37
2018-08-04T05:41:58.054Z,10.17
2018-08-04T05:44:25.845Z,9.73
2018-08-04T05:46:53.683Z,9.90
2018-08-04T05:49:21.475Z,11.50
2018-08-04T05:51:49.658Z,11.13
2018-08-04T05:54:17.526Z,10.90
2018-08-04T05:56:45.347Z,11.20
2018-08-04T05:59:13.224Z,10.87
2018-08-04T06:01:41.375Z,10.33
2018-08-04T06:04:09.327Z,11.50
2018-08-04T06:06:36.961Z,10.37
2018-08-04T06:09:07.415Z,9.00
2018-08-04T06:11:35.290Z,9.23
2018-08-04T06:14:03.118Z,11.23
2018-08-04T06:16:30.874Z,10.97
2018-08-04T06:18:58.671Z,10.63
2018-08-04T06:21:26.547Z,10.93
2018-08-04T06:23:54.392Z,13.80
2018-08-04T06:26:22.232Z,10.33
2018-08-04T06:28:50.039Z,9.60
2018-08-04T06:31:17.791Z,11.03
2018-08-04T06:33:45.567Z,9.37
2018-08-04T06:36:13.404Z,9.27
2018-08-04T06:38:41.268Z,12.77
2018-08-04T06:41:09.098Z,10.47
2018-08-04T06:43:36.899Z,10.40
2018-08-04T06:46:04.928Z,10.93
2018-08-04T06:48:32.822Z,11.73
2018-08-04T06:51:00.632Z,11.63
2018-08-04T06:53:28.363Z,10.97
2018-08-04T06:55:56.136Z,10.27
2018-08-04T06:58:24.021Z,10.47
2018-08-04T07:00:51.796Z,10.80
2018-08-04T07:03:19.567Z,12.03
2018-08-04T07:05:47.378Z,8.67
2018-08-04T07:08:15.171Z,11.20
2018-08-04T07:10:43.093Z,11.00
2018-08-04T07:13:10.875Z,10.87
2018-08-04T07:15:38.772Z,10.43
2018-08-04T07:18:06.407Z,10.20
2018-08-04T07:20:34.239Z,10.27
2018-08-04T07:23:02.101Z,10.57
2018-08-04T07:25:29.903Z,9.90
2018-08-04T07:27:57.717Z,9.50
2018-08-04T07:30:25.369Z,11.37
2018-08-04T07:32:53.268Z,11.37
2018-08-04T07:35:21.085Z,11.63
2018-08-04T07:37:48.880Z,12.67
2018-08-04T07:40:16.691Z,13.13
2018-08-04T07:42:44.769Z,11.73
2018-08-04T07:45:12.532Z,12.10
2018-08-04T07:47:40.320Z,13.43
2018-08-04T07:50:08.090Z,13.77
2018-08-04T07:52:35.917Z,12.50
2018-08-04T07:55:03.801Z,12.23
2018-08-04T07:57:31.727Z,11.70
2018-08-04T07:59:59.544Z,11.10
2018-08-04T08:02:27.470Z,12.17
2018-08-04T08:04:55.282Z,13.13
2018-08-04T08:07:24.503Z,12.73
2018-08-04T08:09:53.045Z,12.07
2018-08-04T08:12:21.162Z,11.47
2018-08-04T08:14:49.034Z,13.67
2018-08-04T08:17:16.843Z,11.57
2018-08-04T08:19:44.853Z,11.67
2018-08-04T08:22:12.687Z,11.40
2018-08-04T08:24:40.534Z,12.40
2018-08-04T08:27:08.285Z,15.87
2018-08-04T08:29:36.238Z,15.33
2018-08-04T08:32:04.223Z,15.50
2018-08-04T08:34:32.062Z,15.03
2018-08-04T08:36:59.911Z,14.73
2018-08-04T08:39:27.848Z,16.10
2018-08-04T08:41:55.634Z,13.70
2018-08-04T08:44:23.372Z,13.10
2018-08-04T08:46:51.167Z,12.07
2018-08-04T08:49:18.910Z,13.03
2018-08-04T08:51:46.721Z,11.67
2018-08-04T08:54:14.592Z,10.87
2018-08-04T08:56:42.350Z,9.93
2018-08-04T08:59:10.111Z,12.07
2018-08-04T09:01:37.904Z,10.20
2018-08-04T09:04:06.068Z,11.40
2018-08-04T09:06:33.866Z,13.17
2018-08-04T09:09:01.692Z,12.07
2018-08-04T09:11:29.583Z,10.63
2018-08-04T09:13:57.307Z,11.17
2018-08-04T09:16:25.207Z,11.07
2018-08-04T09:18:53.020Z,12.60
2018-08-04T09:21:20.760Z,11.97
2018-08-04T09:23:48.542Z,12.80
2018-08-04T09:26:16.402Z,11.37
2018-08-04T09:28:44.127Z,12.60
2018-08-04T09:31:11.936Z,17.53
2018-08-04T09:33:39.707Z,12.17
2018-08-04T09:36:07.410Z,11.47
2018-08-04T09:38:35.114Z,10.77
2018-08-04T09:41:02.856Z,11.20
2018-08-04T09:43:30.524Z,10.43
2018-08-04T09:45:58.241Z,10.63
2018-08-04T09:48:25.990Z,11.00
2018-08-04T09:50:53.811Z,11.23
2018-08-04T09:53:21.562Z,10.53
2018-08-04T09:55:49.273Z,12.10
2018-08-04T09:58:17.055Z,12.17
2018-08-04T10:00:50.559Z,12.43
2018-08-04T10:03:18.351Z,11.20
2018-08-04T10:05:46.177Z,11.73
2018-08-04T10:08:14.000Z,10.33
2018-08-04T10:10:41.768Z,10.20
2018-08-04T10:13:09.570Z,11.00
2018-08-04T10:15:37.323Z,10.27
2018-08-04T10:18:05.425Z,11.10
2018-08-04T10:20:33.227Z,11.67
2018-08-04T10:23:00.983Z,10.53
2018-08-04T10:25:28.747Z,11.43
2018-08-04T10:27:56.512Z,11.40
2018-08-04T10:30:24.310Z,10.00
2018-08-04T10:32:52.150Z,11.67
2018-08-04T10:35:19.919Z,9.67
2018-08-04T10:37:47.748Z,10.17
2018-08-04T10:40:15.570Z,9.97
2018-08-04T10:42:43.435Z,10.33
2018-08-04T10:45:11.190Z,11.50
2018-08-04T10:47:39.029Z,10.83
2018-08-04T10:50:06.855Z,10.77
2018-08-04T10:52:34.681Z,9.67
2018-08-04T10:55:02.442Z,9.87
2018-08-04T10:57:30.216Z,9.83
2018-08-04T10:59:58.002Z,10.17
2018-08-04T11:02:25.850Z,10.17
2018-08-04T11:04:53.689Z,9.83
2018-08-04T11:07:21.547Z,9.97
2018-08-04T11:09:49.251Z,9.20
2018-08-04T11:12:17.026Z,10.03
2018-08-04T11:14:44.787Z,9.07
2018-08-04T11:17:12.491Z,8.60
2018-08-04T11:19:40.304Z,8.20
2018-08-04T11:22:08.056Z,13.73
2018-08-04T11:24:35.782Z,10.20
2018-08-04T11:27:03.591Z,12.30
2018-08-04T11:29:31.348Z,9.63
2018-08-04T11:31:59.154Z,8.70
2018-08-04T11:34:26.915Z,9.30
2018-08-04T11:36:54.714Z,9.20
2018-08-04T11:39:22.513Z,9.20
2018-08-04T11:41:50.224Z,9.00
2018-08-04T11:44:17.964Z,9.90
2018-08-04T11:46:45.675Z,9.40
2018-08-04T11:49:13.369Z,10.27
2018-08-04T11:51:41.138Z,9.57
2018-08-04T11:54:08.771Z,9.07
2018-08-04T11:56:36.480Z,9.70
2018-08-04T11:59:04.196Z,8.53
2018-08-04T12:01:31.972Z,8.83
2018-08-04T12:03:59.696Z,8.30
2018-08-04T12:06:27.446Z,8.77
2018-08-04T12:08:55.140Z,8.60
2018-08-04T12:11:22.870Z,8.97
2018-08-04T12:13:50.697Z,8.50
2018-08-04T12:16:18.530Z,8.13
2018-08-04T12:18:46.318Z,8.97
2018-08-04T12:21:14.116Z,8.57
2018-08-04T12:23:41.946Z,8.07
2018-08-04T12:26:09.711Z,8.13
2018-08-04T12:28:37.474Z,8.90
2018-08-04T12:31:05.256Z,8.63
2018-08-04T12:33:33.876Z,8.10
2018-08-04T12:36:01.694Z,8.87
2018-08-04T12:38:29.474Z,9.17
2018-08-04T12:40:57.232Z,8.27
2018-08-04T12:43:24.968Z,7.37
2018-08-04T12:45:52.773Z,7.87
2018-08-04T12:48:20.511Z,7.27
2018-08-04T12:50:48.235Z,7.50
2018-08-04T12:53:16.203Z,7.87
2018-08-04T12:55:43.945Z,7.30
2018-08-04T12:58:11.693Z,7.80
2018-08-04T13:00:39.476Z,7.40
2018-08-04T13:03:07.179Z,8.20
2018-08-04T13:05:34.976Z,7.20
2018-08-04T13:08:02.819Z,7.07
2018-08-04T13:10:30.598Z,7.33
2018-08-04T13:12:58.300Z,7.27
2018-08-04T13:15:26.068Z,8.20
2018-08-04T13:17:53.771Z,8.10
2018-08-04T13:20:21.596Z,7.60
2018-08-04T13:22:49.404Z,9.57
2018-08-04T13:25:17.180Z,6.87
2018-08-04T13:27:44.859Z,7.30
2018-08-04T13:30:12.674Z,7.23
2018-08-04T13:32:40.485Z,7.13
2018-08-04T13:35:08.157Z,6.80
2018-08-04T13:37:35.880Z,6.60
2018-08-04T13:40:03.864Z,7.47
2018-08-04T13:42:31.734Z,23.80
2018-08-04T13:44:59.486Z,7.13
2018-08-04T13:47:27.215Z,7.63
2018-08-04T13:49:54.988Z,7.93
2018-08-04T13:52:22.579Z,7.37
2018-08-04T13:54:50.343Z,6.93
2018-08-04T13:57:18.146Z,6.73
2018-08-04T13:59:45.997Z,6.50
2018-08-04T14:02:13.788Z,7.13
2018-08-04T14:04:41.557Z,6.37
2018-08-04T14:07:09.359Z,6.53
2018-08-04T14:09:37.151Z,6.23
2018-08-04T14:12:05.286Z,6.70
2018-08-04T14:14:33.117Z,7.03
2018-08-04T14:17:00.884Z,9.87
2018-08-04T14:19:28.743Z,7.93
2018-08-04T14:21:56.491Z,8.90
2018-08-04T14:24:24.302Z,7.90
2018-08-04T14:26:52.173Z,6.90
2018-08-04T14:29:19.923Z,8.03
2018-08-04T14:31:47.620Z,8.33
2018-08-04T14:34:15.467Z,8.43
2018-08-04T14:36:43.542Z,8.93
2018-08-04T14:39:12.647Z,8.93
2018-08-04T14:41:40.531Z,8.10
2018-08-04T14:44:08.247Z,6.77
2018-08-04T14:46:36.108Z,7.80
2018-08-04T14:49:03.929Z,8.40
2018-08-04T14:51:31.916Z,8.30
2018-08-04T14:53:59.943Z,8.60
2018-08-04T14:56:27.923Z,9.13
2018-08-04T14:58:55.667Z,8.43
2018-08-04T15:01:23.855Z,8.47
2018-08-04T15:03:51.976Z,9.10
2018-08-04T15:06:19.819Z,7.80
2018-08-04T15:08:47.587Z,7.70
2018-08-04T15:11:15.775Z,7.60
2018-08-04T15:13:44.670Z,8.20
2018-08-04T15:16:13.126Z,7.90
2018-08-04T15:18:40.972Z,7.93
2018-08-04T15:21:08.775Z,7.57
2018-08-04T15:23:36.521Z,8.17
2018-08-04T15:26:04.493Z,8.17
2018-08-04T15:28:32.294Z,7.13
2018-08-04T15:31:00.123Z,7.50
2018-08-04T15:33:27.809Z,8.27
2018-08-04T15:35:55.551Z,7.17
2018-08-04T15:38:23.531Z,6.07
2018-08-04T15:40:51.209Z,5.97
2018-08-04T15:43:19.387Z,5.47
2018-08-04T15:45:47.163Z,6.73
2018-08-04T15:48:15.805Z,6.10
2018-08-04T15:50:43.648Z,6.67
2018-08-04T15:53:11.386Z,5.53
2018-08-04T15:55:39.096Z,5.90
2018-08-04T15:58:09.848Z,6.27
2018-08-04T16:00:37.624Z,6.13
2018-08-04T16:03:05.595Z,6.33
2018-08-04T16:05:33.359Z,5.80
2018-08-04T16:08:01.123Z,6.33
2018-08-04T16:10:28.948Z,7.43
2018-08-04T16:12:57.108Z,6.53
2018-08-04T16:15:24.825Z,6.53
2018-08-04T16:17:52.592Z,6.03
2018-08-04T16:20:20.431Z,6.70
2018-08-04T16:22:48.493Z,6.17
2018-08-04T16:25:16.102Z,6.33
2018-08-04T16:27:43.887Z,6.23
2018-08-04T16:30:11.702Z,6.73
2018-08-04T16:32:40.222Z,6.43
2018-08-04T16:35:08.634Z,6.50
2018-08-04T16:37:36.450Z,6.73
2018-08-04T16:40:05.149Z,6.30
2018-08-04T16:42:33.090Z,6.20
2018-08-04T16:45:01.265Z,6.27
2018-08-04T16:47:29.075Z,7.10
2018-08-04T16:49:56.855Z,7.07
2018-08-04T16:52:24.602Z,6.83
2018-08-04T16:54:52.319Z,6.40
2018-08-04T16:57:20.043Z,6.93
2018-08-04T16:59:47.726Z,6.23
2018-08-04T17:02:15.532Z,7.10
2018-08-04T17:04:43.290Z,6.47
2018-08-04T17:07:11.097Z,7.97
2018-08-04T17:09:38.739Z,7.57
2018-08-04T17:12:06.482Z,7.53
2018-08-04T17:14:34.198Z,8.57
2018-08-04T17:17:02.225Z,7.30
2018-08-04T17:19:30.083Z,7.70
2018-08-04T17:21:57.815Z,7.20
2018-08-04T17:24:25.859Z,7.50
2018-08-04T17:26:54.166Z,7.30
2018-08-04T17:29:22.302Z,7.10
2018-08-04T17:31:50.492Z,6.17
2018-08-04T17:34:18.370Z,6.50
2018-08-04T17:36:46.230Z,8.10
2018-08-04T17:39:14.024Z,6.87
2018-08-04T17:41:41.771Z,7.00
2018-08-04T17:44:09.826Z,8.50
2018-08-04T17:46:37.523Z,7.90
2018-08-04T17:49:05.335Z,7.83
2018-08-04T17:51:33.458Z,8.27
2018-08-04T17:54:01.231Z,7.30
2018-08-04T17:56:29.487Z,7.57
2018-08-04T17:58:57.315Z,8.40
2018-08-04T18:01:25.478Z,9.10
2018-08-04T18:03:53.369Z,8.80
2018-08-04T18:06:21.138Z,8.13
2018-08-04T18:08:48.874Z,8.80
2018-08-04T18:11:16.598Z,9.27
2018-08-04T18:13:44.287Z,10.17
2018-08-04T18:16:12.072Z,9.80
2018-08-04T18:18:39.896Z,10.50
2018-08-04T18:21:08.075Z,15.53
2018-08-04T18:23:36.162Z,16.40
2018-08-04T18:26:04.922Z,16.30
2018-08-04T18:28:33.912Z,14.23
2018-08-04T18:31:02.749Z,16.70
2018-08-04T18:33:30.498Z,17.23
2018-08-04T18:35:59.272Z,12.13
2018-08-04T18:38:27.144Z,11.03
2018-08-04T18:40:55.346Z,11.00
2018-08-04T18:43:23.309Z,11.10
2018-08-04T18:45:50.990Z,11.80
2018-08-04T18:48:18.976Z,12.20
2018-08-04T18:50:48.804Z,12.90
2018-08-04T18:53:17.438Z,13.70
2018-08-04T18:55:45.259Z,18.30
2018-08-04T18:58:13.064Z,17.67
2018-08-04T19:00:41.220Z,15.67
2018-08-04T19:03:09.436Z,18.93
2018-08-04T19:05:37.179Z,18.37
2018-08-04T19:08:04.911Z,13.20
2018-08-04T19:10:33.505Z,9.03
2018-08-04T19:13:01.307Z,12.03
2018-08-04T19:15:29.116Z,9.13
2018-08-04T19:17:56.893Z,8.60
2018-08-04T19:20:24.693Z,9.23
2018-08-04T19:22:52.764Z,10.90
2018-08-04T19:25:20.858Z,12.30
2018-08-04T19:27:48.843Z,8.53
2018-08-04T19:30:16.591Z,9.73
2018-08-04T19:32:44.411Z,9.70
2018-08-04T19:35:12.100Z,8.80
2018-08-04T19:37:39.898Z,9.73
2018-08-04T19:40:07.767Z,11.87
2018-08-04T19:42:35.641Z,10.33
2018-08-04T19:45:03.524Z,8.67
2018-08-04T19:47:31.274Z,7.70
2018-08-04T19:49:59.141Z,7.20
2018-08-04T19:52:27.028Z,7.43
2018-08-04T19:54:54.870Z,7.23
2018-08-04T19:57:22.652Z,7.83
2018-08-04T19:59:50.538Z,5.83
2018-08-04T20:02:18.348Z,6.13
2018-08-04T20:04:46.166Z,8.50
2018-08-04T20:07:13.874Z,6.50
2018-08-04T20:09:41.948Z,7.00
2018-08-04T20:12:09.566Z,5.60
2018-08-04T20:14:37.419Z,5.67
2018-08-04T20:17:05.147Z,5.40
2018-08-04T20:19:32.988Z,5.43
2018-08-04T20:22:00.762Z,6.33
2018-08-04T20:24:28.534Z,5.30
2018-08-04T20:26:56.328Z,5.30
2018-08-04T20:29:24.284Z,4.83
2018-08-04T20:31:52.083Z,5.30
2018-08-04T20:34:19.855Z,6.63
2018-08-04T20:36:47.591Z,6.10
2018-08-04T20:39:15.457Z,4.90
2018-08-04T20:41:43.266Z,5.60
2018-08-04T20:44:11.168Z,4.43
2018-08-04T20:46:39.125Z,4.83
2018-08-04T20:49:06.911Z,4.60
2018-08-04T20:51:34.742Z,4.40
2018-08-04T20:54:02.508Z,4.93
2018-08-04T20:56:30.315Z,4.13
2018-08-04T20:58:58.135Z,4.47
2018-08-04T21:01:33.584Z,4.60
2018-08-04T21:04:01.488Z,3.73
2018-08-04T21:06:29.282Z,4.83
2018-08-04T21:08:56.922Z,3.87
2018-08-04T21:11:24.684Z,4.50
2018-08-04T21:13:52.464Z,3.93
2018-08-04T21:16:20.383Z,4.10
2018-08-04T21:18:48.214Z,4.13
2018-08-04T21:21:16.019Z,4.30
2018-08-04T21:23:44.097Z,4.33
2018-08-04T21:26:11.936Z,4.20
2018-08-04T21:28:39.612Z,3.50
2018-08-04T21:31:07.491Z,3.90
2018-08-04T21:33:35.216Z,3.67
2018-08-04T21:36:03.003Z,5.00
2018-08-04T21:38:30.654Z,4.20
2018-08-04T21:40:58.477Z,3.57
2018-08-04T21:43:26.265Z,5.80
2018-08-04T21:45:54.034Z,4.23
2018-08-04T21:48:21.851Z,3.77
2018-08-04T21:50:49.654Z,3.53
